Latest Weather Observations for Sheoaks

IDV60801

Issued at 5:35 pm EST Friday 25 April 2014 (issued every 30 minutes, with the page automatically refreshed every 10 minutes)

About weather observations | Map of weather stations | Latest weather observations for VIC | Other Formats
Station Details ID: 087168 Name: SHEOAKS Lat: -37.91 Lon: 144.13 Height: 236.7 m
Data from the previous 72 hours. | See also: Recent months at Sheoaks
Date/Time
EST
Temp
°C
App
Temp
°C
Dew
Point
Rel
Hum
%
Delta-T
°C
Wind Press
QNH
hPa
Press
MSL
hPa
Rain
since 9 am
mm
Dir
 
Spd
km/h
Gust
km/h
Spd
kts
Gust
kts
25/05:30pm 14.9 11.6 2.4 43 5.6 NNW 9 19 5 10 1013.5 - 0.0
25/05:00pm 16.0 11.6 2.8 41 6.0 NW 15 22 8 12 1013.4 1013.2 0.0
25/04:30pm 17.1 12.1 3.4 40 6.4 NW 19 28 10 15 1013.2 - 0.0
25/04:00pm 18.0 13.7 3.5 38 6.8 NNW 15 22 8 12 1012.9 1012.7 0.0
25/03:30pm 18.6 15.1 3.3 36 7.2 NNW 11 20 6 11 1013.1 - 0.0
25/03:00pm 18.5 15.0 3.6 37 7.1 NNW 11 20 6 11 1013.4 1013.2 0.0
25/02:30pm 18.7 15.2 3.3 36 7.3 NW 11 20 6 11 1013.8 - 0.0
25/02:00pm 18.6 14.7 3.3 36 7.2 WNW 13 20 7 11 1014.4 1014.2 0.0
25/01:30pm 17.9 14.1 1.8 34 7.3 NNW 11 22 6 12 1014.7 - 0.0
25/01:00pm 17.2 14.3 4.5 43 6.1 WNW 9 15 5 8 1015.5 1015.4 0.0
25/12:30pm 16.5 13.4 5.5 48 5.3 WNW 11 19 6 10 1016.3 - 0.0
25/12:00pm 15.8 12.5 4.8 48 5.2 NNW 11 17 6 9 1017.0 1016.8 0.0
25/11:30am 15.3 12.8 5.0 50 4.9 N 7 11 4 6 1017.9 - 0.0
25/11:00am 14.2 11.1 3.4 48 4.9 N 9 13 5 7 1018.1 1017.9 0.0
25/10:30am 13.7 11.1 4.3 53 4.4 NNE 7 13 4 7 1018.7 - 0.0
25/10:00am 12.4 8.7 4.4 58 3.7 ENE 13 19 7 10 1019.0 1018.9 0.0
25/09:30am 11.8 9.7 5.9 67 2.8 N 6 13 3 7 1019.4 - 0.0
25/09:00am 8.0 5.4 4.4 78 1.6 N 7 11 4 6 1019.7 1019.6 0.0
25/08:30am 5.7 3.0 3.5 86 0.9 N 7 9 4 5 1020.2 - 0.0
25/08:00am 4.0 0.3 2.5 90 0.6 N 11 13 6 7 1020.2 1020.1 0.0
25/07:30am 2.5 -1.3 1.5 93 0.4 N 11 13 6 7 1020.1 - 0.0
25/07:00am 2.2 -2.1 1.3 94 0.3 N 13 15 7 8 1020.2 1020.1 0.0
25/06:30am 1.5 -2.5 0.6 94 0.3 N 11 13 6 7 1020.3 - 0.0
25/06:00am 1.7 -2.3 0.8 94 0.3 N 11 13 6 7 1020.5 1020.3 0.0
25/05:30am 1.4 -2.6 0.7 95 0.3 N 11 15 6 8 1020.7 - 0.0
25/05:00am 1.5 -2.5 0.8 95 0.3 N 11 11 6 6 1020.6 1020.4 0.0
25/04:30am 1.7 -1.8 1.1 96 0.2 N 9 11 5 6 1020.2 - 0.0
25/04:00am 2.1 -1.7 1.5 96 0.2 N 11 15 6 8 1020.3 1020.2 0.0
25/03:30am 2.2 -2.0 1.5 95 0.3 N 13 13 7 7 1020.5 - 0.0
25/03:00am 2.6 -1.2 1.9 95 0.3 N 11 13 6 7 1020.7 1020.5 0.0
25/02:30am 2.6 -1.2 1.9 95 0.3 N 11 11 6 6 1021.2 - 0.0
25/02:00am 2.6 -0.8 1.9 95 0.3 N 9 11 5 6 1021.1 1020.9 0.0
25/01:30am 2.8 -0.9 2.1 95 0.3 N 11 13 6 7 1020.9 - 0.0
25/01:00am 3.4 -0.3 2.5 94 0.4 N 11 13 6 7 1021.0 1020.8 0.0
25/12:30am 3.7 0.4 2.7 93 0.4 N 9 9 5 5 1021.1 - 0.0
25/12:00am 4.5 1.3 3.3 92 0.5 N 9 11 5 6 1021.3 1021.1 0.0
 
Date/Time
EST
Temp
°C
App
Temp
°C
Dew
Point
Rel
Hum
%
Delta-T
°C
Wind Press
QNH
hPa
Press
MSL
hPa
Rain
since 9 am
mm
Dir
 
Spd
km/h
Gust
km/h
Spd
kts
Gust
kts
24/11:30pm 4.8 1.6 3.3 90 0.6 N 9 9 5 5 1021.7 - 0.0
24/11:00pm 5.2 2.5 3.5 89 0.7 N 7 9 4 5 1021.8 1021.6 0.0
24/10:30pm 5.4 2.7 3.7 89 0.7 N 7 7 4 4 1021.8 - 0.0
24/10:00pm 5.3 2.6 3.8 90 0.6 N 7 9 4 5 1022.0 1021.8 0.0
24/09:30pm 5.0 1.9 3.5 90 0.6 N 9 9 5 5 1021.9 - 0.0
24/09:00pm 5.3 2.6 3.6 89 0.7 N 7 7 4 4 1021.6 1021.4 0.0
24/08:30pm 5.9 3.2 3.9 87 0.9 N 7 7 4 4 1021.4 - 0.0
24/08:00pm 6.4 4.0 4.1 85 1.0 NNW 6 7 3 4 1020.9 1020.7 0.0
24/07:30pm 8.3 6.6 3.9 74 1.9 SW 2 6 1 3 1020.7 - 0.0
24/07:00pm 8.6 7.0 4.6 76 1.8 NNW 2 4 1 2 1020.5 1020.3 0.0
24/06:30pm 9.6 8.3 4.2 69 2.4 CALM 0 4 0 2 1019.9 - 0.0
24/06:00pm 10.8 8.4 4.3 64 2.9 SW 6 9 3 5 1019.5 1019.4 0.0
24/05:30pm 11.9 9.3 4.2 59 3.5 SW 7 11 4 6 1019.0 - 0.0
24/05:00pm 12.8 9.5 4.8 58 3.7 SW 11 19 6 10 1018.6 1018.4 0.0
24/04:30pm 13.2 9.5 4.4 55 4.1 SW 13 19 7 10 1018.3 - 0.0
24/04:00pm 13.5 9.6 3.6 51 4.5 SW 13 24 7 13 1018.1 1017.9 0.0
24/03:30pm 13.4 9.8 2.9 49 4.7 WSW 11 24 6 13 1018.0 - 0.0
24/03:00pm 13.9 10.1 3.7 50 4.7 SW 13 22 7 12 1017.8 1017.6 0.0
24/02:30pm 14.6 10.2 4.9 52 4.6 WSW 17 22 9 12 1017.7 - 0.0
24/02:00pm 13.9 9.1 4.5 53 4.4 SW 19 28 10 15 1017.6 1017.4 0.0
24/01:30pm 14.9 10.6 3.4 46 5.3 SW 15 26 8 14 1017.5 - 0.0
24/01:00pm 14.6 10.6 3.1 46 5.2 SW 13 22 7 12 1017.5 1017.3 0.0
24/12:30pm 13.7 9.4 3.2 49 4.8 SW 15 28 8 15 1017.7 - 0.0
24/12:00pm 13.8 10.0 4.1 52 4.5 WSW 13 20 7 11 1017.8 1017.6 0.0
24/11:30am 14.1 9.5 3.6 49 4.8 WSW 17 26 9 14 1017.6 - 0.0
24/11:00am 13.5 8.9 3.6 51 4.5 W 17 28 9 15 1017.4 1017.2 0.0
24/10:30am 12.6 7.8 4.8 59 3.6 WSW 19 33 10 18 1017.1 - 0.0
24/10:00am 12.7 8.8 7.0 68 2.8 WSW 17 30 9 16 1016.5 1016.3 0.0
24/09:30am 12.6 8.5 7.9 73 2.3 WSW 19 28 10 15 1016.1 - 0.0
24/09:00am 11.9 8.5 9.1 83 1.4 W 17 30 9 16 1015.6 1015.5 1.4
24/08:30am 11.6 8.9 10.3 92 0.7 W 15 26 8 14 1015.0 - 1.4
24/08:00am 11.2 8.5 10.3 94 0.5 W 15 22 8 12 1014.2 1014.0 1.4
24/07:30am 11.2 6.7 10.1 93 0.6 W 24 41 13 22 1013.2 - 1.2
24/07:00am 11.5 8.3 8.5 82 1.5 NW 15 22 8 12 1012.0 1011.8 0.4
24/06:30am 12.2 7.6 8.3 77 1.9 NW 22 35 12 19 1011.3 - 0.0
24/06:00am 12.8 8.3 6.8 67 2.9 NW 20 32 11 17 1010.8 1010.6 0.0
24/05:30am 12.7 7.9 5.6 62 3.4 NW 20 30 11 16 1010.3 - 0.0
24/05:00am 12.8 8.1 5.0 59 3.7 NW 19 33 10 18 1010.3 1010.1 0.0
24/04:30am 12.4 8.2 3.9 56 3.9 NNW 15 24 8 13 1009.8 - 0.0
24/04:00am 11.9 7.2 3.4 56 3.8 NNW 17 24 9 13 1009.6 1009.4 0.0
24/03:30am 12.2 7.2 3.4 55 4.0 NNW 19 30 10 16 1009.7 - 0.0
24/03:00am 11.9 7.6 3.4 56 3.8 NNW 15 22 8 12 1010.2 1010.0 0.0
24/02:30am 12.3 8.0 3.5 55 4.0 NNW 15 22 8 12 1010.5 - 0.0
24/02:00am 11.8 8.0 3.8 58 3.6 NNW 13 20 7 11 1010.8 1010.6 0.0
24/01:30am 12.3 8.5 3.8 56 3.9 NNW 13 22 7 12 1010.9 - 0.0
24/01:00am 12.7 8.5 3.9 55 4.0 NNW 15 22 8 12 1010.8 1010.6 0.0
24/12:30am 12.6 8.5 4.3 57 3.8 NNW 15 19 8 10 1011.1 - 0.0
24/12:00am 12.2 8.1 4.4 59 3.6 NNW 15 22 8 12 1011.7 1011.5 0.0
 
Date/Time
EST
Temp
°C
App
Temp
°C
Dew
Point
Rel
Hum
%
Delta-T
°C
Wind Press
QNH
hPa
Press
MSL
hPa
Rain
since 9 am
mm
Dir
 
Spd
km/h
Gust
km/h
Spd
kts
Gust
kts
23/11:30pm 11.9 8.2 4.4 60 3.4 NNW 13 19 7 10 1012.1 - 0.0
23/11:00pm 11.6 8.3 4.6 62 3.2 NNW 11 17 6 9 1012.4 1012.2 0.0
23/10:30pm 11.6 8.3 4.8 63 3.1 NNW 11 15 6 8 1012.6 - 0.0
23/10:00pm 11.8 8.9 4.8 62 3.2 NNW 9 17 5 9 1012.8 1012.6 0.0
23/09:30pm 11.9 8.7 4.9 62 3.2 NNW 11 17 6 9 1013.0 - 0.0
23/09:00pm 11.3 8.5 5.2 66 2.8 NNW 9 13 5 7 1013.1 1012.9 0.0
23/08:30pm 11.3 9.0 5.6 68 2.7 NNW 7 9 4 5 1013.4 - 0.0
23/08:00pm 10.7 8.7 6.1 73 2.2 N 6 7 3 4 1013.6 1013.4 0.0
23/07:30pm 10.6 8.4 6.0 73 2.2 N 7 9 4 5 1013.6 - 0.0
23/07:00pm 11.1 9.1 6.3 72 2.3 N 6 9 3 5 1013.4 1013.2 0.0
23/06:30pm 12.3 10.6 6.1 66 3.0 N 4 6 2 3 1013.3 - 0.0
23/06:00pm 13.5 12.4 4.9 56 4.0 CALM 0 0 0 0 1013.2 1013.0 0.0
23/05:30pm 14.8 13.3 5.1 52 4.6 NW 2 4 1 2 1013.2 - 0.0
23/05:00pm 15.4 12.9 4.5 48 5.2 NW 7 9 4 5 1013.3 1013.1 0.0
23/04:30pm 16.5 12.8 4.5 45 5.7 W 13 22 7 12 1013.5 - 0.0
23/04:00pm 16.8 13.8 6.0 49 5.3 NW 11 20 6 11 1013.8 1013.6 0.0
23/03:30pm 16.7 13.2 5.6 48 5.4 WNW 13 19 7 10 1013.8 - 0.0
23/03:00pm 16.8 13.9 6.3 50 5.2 WNW 11 20 6 11 1013.9 1013.7 0.0
23/02:30pm 16.4 13.9 6.5 52 4.9 WNW 9 13 5 7 1013.9 - 0.0
23/02:00pm 16.5 14.6 6.6 52 4.9 WNW 6 11 3 6 1014.0 1013.8 0.0
23/01:30pm 15.6 12.7 6.6 55 4.4 W 11 17 6 9 1014.3 - 0.0
23/01:00pm 15.8 13.7 6.8 55 4.5 NW 7 13 4 7 1014.9 1014.7 0.0
23/12:30pm 15.8 12.9 6.5 54 4.6 W 11 15 6 8 1015.6 - 0.0
23/12:00pm 15.5 12.5 6.2 54 4.5 W 11 17 6 9 1016.3 1016.1 0.0
23/11:30am 15.3 13.2 6.6 56 4.3 WNW 7 13 4 7 1016.4 - 0.0
23/11:00am 14.7 13.2 8.4 66 3.2 W 6 11 3 6 1016.6 1016.4 0.0
23/10:30am 14.1 13.1 8.7 70 2.8 W 4 9 2 5 1016.8 - 0.0
23/10:00am 13.7 12.7 8.7 72 2.5 WNW 4 7 2 4 1017.0 1016.8 0.0
23/09:30am 12.1 10.6 9.1 82 1.5 W 7 13 4 7 1017.3 - 0.0
23/09:00am 10.4 9.5 9.3 93 0.6 NNW 4 7 2 4 1017.5 1017.3 1.0
23/08:30am 7.6 5.8 7.2 97 0.2 N 6 9 3 5 1017.4 - 1.0
23/08:00am 5.8 3.1 5.5 98 0.1 N 9 11 5 6 1017.0 1016.8 1.0
23/07:30am 4.9 2.0 4.6 98 0.1 N 9 11 5 6 1016.8 - 1.0
23/07:00am 4.9 2.0 4.8 99 0.0 N 9 11 5 6 1016.7 1016.5 1.0
23/06:30am 4.5 1.5 4.2 98 0.1 N 9 9 5 5 1016.7 - 1.0
23/06:00am 4.8 1.9 4.7 99 0.0 NNW 9 9 5 5 1016.6 1016.4 1.0
23/05:30am 5.0 2.1 4.9 99 0.0 N 9 11 5 6 1016.7 - 1.0
23/05:00am 5.2 2.4 5.1 99 0.0 NNW 9 9 5 5 1016.6 1016.4 1.0
23/04:30am 5.8 2.7 5.7 99 0.0 N 11 11 6 6 1016.4 - 1.0
23/04:00am 5.5 2.7 5.2 98 0.1 N 9 11 5 6 1016.4 1016.2 1.0
23/03:30am 6.1 3.4 5.8 98 0.1 N 9 11 5 6 1016.3 - 1.0
23/03:00am 6.5 3.9 6.2 98 0.1 N 9 9 5 5 1016.6 1016.4 0.8
23/02:30am 6.6 4.4 6.3 98 0.1 N 7 9 4 5 1017.0 - 0.8
23/02:00am 6.9 4.8 6.6 98 0.1 N 7 9 4 5 1017.2 1017.0 0.8
23/01:30am 7.5 5.5 7.2 98 0.1 N 7 9 4 5 1017.3 - 0.8
23/01:00am 8.2 6.4 7.8 97 0.2 NNW 7 7 4 4 1017.5 1017.3 0.8
23/12:30am 8.7 7.0 8.3 97 0.2 N 7 7 4 4 1017.6 - 0.8
23/12:00am 9.3 7.9 8.7 96 0.3 N 6 7 3 4 1017.8 1017.6 0.8
 
Date/Time
EST
Temp
°C
App
Temp
°C
Dew
Point
Rel
Hum
%
Delta-T
°C
Wind Press
QNH
hPa
Press
MSL
hPa
Rain
since 9 am
mm
Dir
 
Spd
km/h
Gust
km/h
Spd
kts
Gust
kts
22/11:30pm 9.6 8.2 8.8 95 0.4 N 6 6 3 3 1018.0 - 0.8
22/11:00pm 10.4 9.1 9.3 93 0.6 N 6 6 3 3 1018.1 1017.9 0.8
22/10:30pm 10.9 10.0 9.3 90 0.8 N 4 6 2 3 1018.3 - 0.8
22/10:00pm 11.1 10.9 9.2 88 1.0 CALM 0 2 0 1 1018.4 1018.2 0.8
22/09:30pm 11.2 10.6 8.8 85 1.2 WNW 2 4 1 2 1018.2 - 0.8
22/09:00pm 11.7 11.0 8.7 82 1.5 WNW 2 4 1 2 1018.0 1017.8 0.8
22/08:30pm 12.4 11.4 8.9 79 1.8 WSW 4 6 2 3 1017.9 - 0.8
22/08:00pm 12.7 12.5 9.2 79 1.8 CALM 0 6 0 3 1017.8 1017.6 0.8
22/07:30pm 12.6 12.1 10.8 89 1.0 WSW 4 7 2 4 1017.6 - 0.8
22/07:00pm 13.1 13.3 11.8 92 0.7 SSE 2 4 1 2 1017.3 1017.1 0.8
22/06:30pm 13.3 12.7 11.7 90 0.9 SE 6 7 3 4 1017.0 - 0.8
22/06:00pm 13.8 12.6 11.5 86 1.2 SE 9 15 5 8 1016.5 1016.3 0.0

Other Formats:

Comma delimited format used in spreadsheet applications
http://www.bom.gov.au/fwo/IDV60801/IDV60801.94863.axf

JavaScript Object Notation format (JSON) in row-major order
http://www.bom.gov.au/fwo/IDV60801/IDV60801.94863.json